Time;durP1;ratioP1;P1;durP2;ratioP2;P2;SDS_P1;SDS_P2;PMS_P1;PMS_P2;Temp;Humidity;BMP_temperature;BMP_pressure;BME280_temperature;BME280_humidity;BME280_pressure;Samples;Min_cycle;Max_cycle;Signal;HPM_P1;HPM_P2
2023/02/24 00:02:04;;;;;;;8.50;4.43;;;;;;;4.08;92.02;96734.88;5052847;28;20079;-66
2023/02/24 00:04:35;;;;;;;13.80;4.53;;;;;;;4.08;91.67;96729.69;5052441;28;20041;-65
2023/02/24 00:07:01;;;;;;;;;;;;;;;4.09;91.93;96733.16;5052903;28;20581;-68
2023/02/24 00:09:30;;;;;;;10.25;4.03;;;;;;;4.00;92.33;96726.31;5052607;28;20373;-65
2023/02/24 00:12:00;;;;;;;7.85;4.47;;;;;;;4.08;92.55;96728.81;5052388;28;20045;-67
2023/02/24 00:14:29;;;;;;;9.50;3.53;;;;;;;4.12;92.14;96725.34;5052482;28;20045;-67
2023/02/24 00:16:57;;;;;;;8.98;4.47;;;;;;;4.14;91.76;96723.59;5052341;28;20495;-65
2023/02/24 00:19:27;;;;;;;13.73;4.10;;;;;;;4.12;91.69;96717.59;5052451;28;20049;-67
2023/02/24 00:21:57;;;;;;;6.88;4.22;;;;;;;4.19;91.07;96715.78;5052692;28;20399;-65
2023/02/24 00:24:24;;;;;;;11.80;4.25;;;;;;;4.26;91.30;96715.72;5052626;28;20509;-63
2023/02/24 00:26:54;;;;;;;11.07;4.20;;;;;;;4.28;90.71;96715.72;5052986;28;20135;-68
2023/02/24 00:29:21;;;;;;;10.88;4.07;;;;;;;4.30;90.66;96713.94;5056007;28;20048;-66
2023/02/24 00:31:55;;;;;;;6.43;3.80;;;;;;;4.37;90.71;96714.75;5055723;28;20081;-64
2023/02/24 00:34:22;;;;;;;7.65;4.05;;;;;;;4.41;90.78;96698.28;5055943;28;20454;-66
2023/02/24 00:36:49;;;;;;;8.93;3.92;;;;;;;4.41;90.52;96690.53;5055735;28;20049;-67
2023/02/24 00:39:18;;;;;;;7.85;4.30;;;;;;;4.47;90.33;96689.59;5055626;28;20136;-64
2023/02/24 00:41:45;;;;;;;17.92;8.68;;;;;;;4.48;90.44;96681.81;5055642;28;20102;-67
2023/02/24 00:44:14;;;;;;;9.15;5.20;;;;;;;4.58;90.11;96679.09;5055666;28;20156;-66
2023/02/24 00:46:43;;;;;;;10.05;4.35;;;;;;;4.61;89.85;96674.72;5055912;28;20059;-68
2023/02/24 00:49:15;;;;;;;11.10;4.55;;;;;;;4.62;89.77;96666.09;5055599;28;20048;-66
2023/02/24 00:51:47;;;;;;;8.48;4.22;;;;;;;4.75;89.21;96669.38;5055481;28;20497;-67
2023/02/24 00:54:14;;;;;;;13.85;5.47;;;;;;;4.78;89.31;96664.16;5055471;28;20053;-65
2023/02/24 00:56:44;;;;;;;6.28;3.72;;;;;;;4.83;88.61;96668.44;5055471;28;20052;-63
2023/02/24 00:59:13;;;;;;;6.73;4.33;;;;;;;4.75;87.61;96661.63;5055492;28;20044;-64
2023/02/24 01:01:41;;;;;;;9.23;4.07;;;;;;;4.74;87.99;96656.44;5055271;28;20069;-64
2023/02/24 01:04:10;;;;;;;8.93;4.32;;;;;;;4.61;87.46;96664.38;5055334;28;20118;-67
2023/02/24 01:06:40;;;;;;;9.68;3.40;;;;;;;4.66;87.83;96656.53;5055244;28;20041;-63
2023/02/24 01:09:10;;;;;;;6.03;3.28;;;;;;;4.64;87.09;96653.97;5055175;28;20045;-66
2023/02/24 01:14:26;;;;;;;5.75;3.80;;;;;;;4.52;87.52;96648.94;5055156;28;19928;-67
2023/02/24 01:16:53;;;;;;;;;;;;;;;4.55;88.15;96649.75;5055428;28;20055;-66
2023/02/24 01:19:21;;;;;;;9.98;3.90;;;;;;;4.64;88.13;96650.53;5054928;28;19920;-64
2023/02/24 01:21:53;;;;;;;8.13;3.72;;;;;;;4.70;88.13;96645.28;5054912;28;20591;-68
2023/02/24 01:24:22;;;;;;;7.70;4.50;;;;;;;4.77;87.25;96644.31;5054854;28;20080;-65
2023/02/24 01:26:49;;;;;;;7.20;3.83;;;;;;;4.83;87.39;96638.19;5054798;28;20132;-65
2023/02/24 01:29:16;;;;;;;9.68;4.22;;;;;;;4.88;87.56;96633.78;5054799;28;20128;-67
2023/02/24 01:31:46;;;;;;;8.10;3.45;;;;;;;4.90;86.99;96634.63;5054551;28;20503;-64
2023/02/24 01:34:13;;;;;;;16.92;3.90;;;;;;;4.85;85.96;96638.16;5054683;28;20053;-67
2023/02/24 01:36:43;;;;;;;8.40;3.92;;;;;;;4.82;85.84;96633.88;5054709;28;20487;-65
2023/02/24 01:39:11;;;;;;;14.20;4.38;;;;;;;4.94;85.64;96643.25;5053412;28;20052;-66
2023/02/24 01:41:40;;;;;;;8.75;3.90;;;;;;;4.95;86.00;96639.75;5054640;28;20072;-63
2023/02/24 01:44:31;;;;;;;11.48;4.00;;;;;;;4.93;85.06;96637.19;5054703;28;20116;-68
2023/02/24 01:47:00;;;;;;;10.38;3.85;;;;;;;4.86;84.67;96635.56;5054412;28;20049;-67
2023/02/24 01:49:32;;;;;;;10.63;3.83;;;;;;;4.75;84.88;96635.69;5054367;28;20049;-65
2023/02/24 01:52:04;;;;;;;9.05;4.00;;;;;;;4.63;85.48;96636.72;5054355;28;20055;-68
2023/02/24 01:54:34;;;;;;;12.43;3.97;;;;;;;4.65;86.09;96632.38;5054258;28;20139;-66
2023/02/24 01:57:04;;;;;;;10.52;4.72;;;;;;;4.71;86.11;96635.75;5054510;28;20114;-67
2023/02/24 01:59:34;;;;;;;10.05;3.22;;;;;;;4.62;85.50;96639.31;5054162;28;20463;-63
2023/02/24 02:02:06;;;;;;;14.63;4.78;;;;;;;4.66;85.66;96638.41;5054268;28;20037;-65
2023/02/24 02:04:39;;;;;;;11.85;4.65;;;;;;;4.53;85.44;96635.13;5054152;28;20051;-67
2023/02/24 02:07:08;;;;;;;8.25;3.85;;;;;;;4.51;85.56;96629.09;5054024;28;20044;-66
2023/02/24 02:09:36;;;;;;;14.68;5.38;;;;;;;4.50;85.59;96632.56;5054236;28;20051;-66
2023/02/24 02:12:04;;;;;;;11.68;4.55;;;;;;;4.46;85.99;96630.88;5053879;28;20080;-64
2023/02/24 02:14:32;;;;;;;11.40;4.25;;;;;;;4.48;86.34;96634.31;5053970;28;20483;-68
2023/02/24 02:17:13;;;;;;;13.88;5.50;;;;;;;4.53;86.54;96641.16;5053956;28;20120;-65
2023/02/24 02:20:21;;;;;;;12.10;4.75;;;;;;;4.50;85.78;96636.00;5053910;28;20045;-68
2023/02/24 02:23:33;;;;;;;12.73;4.15;;;;;;;4.46;85.40;96630.88;5053818;28;20120;-65
2023/02/24 02:26:19;;;;;;;17.90;4.80;;;;;;;4.38;85.94;96628.38;5025974;28;20043;-66
2023/02/24 02:29:21;;;;;;;10.23;4.47;;;;;;;4.42;86.14;96628.34;5053601;28;20139;-66
2023/02/24 02:32:16;;;;;;;10.27;4.32;;;;;;;4.49;85.99;96628.25;5047635;28;20053;-66
2023/02/24 02:34:54;;;;;;;14.32;5.32;;;;;;;4.43;85.66;96624.03;5053580;28;20076;-65
2023/02/24 02:37:29;;;;;;;10.65;4.72;;;;;;;4.41;86.00;96625.75;5053538;28;20041;-65
2023/02/24 02:40:07;;;;;;;21.02;5.28;;;;;;;4.49;86.34;96620.50;5053768;28;20049;-65
2023/02/24 02:42:42;;;;;;;13.70;4.63;;;;;;;4.55;86.49;96630.78;5053336;28;20049;-65
2023/02/24 02:45:16;;;;;;;19.48;4.75;;;;;;;4.59;85.66;96623.81;5053521;28;20082;-66
2023/02/24 02:47:52;;;;;;;12.15;4.45;;;;;;;4.60;85.53;96618.59;5053450;28;20080;-65
2023/02/24 02:50:25;;;;;;;11.63;4.57;;;;;;;4.62;85.41;96618.59;5053015;28;20084;-66
2023/02/24 02:52:58;;;;;;;18.10;4.55;;;;;;;4.65;85.51;96613.38;5053051;28;20406;-64
2023/02/24 03:16:50;;;;;;;14.38;5.85;;;;;;;5.03;82.06;96616.31;6160507;22;1392066;-60
2023/02/24 03:19:21;;;;;;;15.95;4.63;;;;;;;4.84;82.39;96605.34;6194732;23;20028;-60
2023/02/24 03:21:57;;;;;;;12.77;5.07;;;;;;;4.80;82.77;96614.91;6194537;23;20021;-60
2023/02/24 03:24:26;;;;;;;22.00;5.68;;;;;;;4.66;83.38;96607.31;6194725;23;20021;-60
2023/02/24 03:27:00;;;;;;;13.50;5.32;;;;;;;4.63;83.71;96607.34;6194426;23;20075;-61
2023/02/24 03:29:33;;;;;;;18.50;5.32;;;;;;;4.73;84.14;96615.88;6194677;23;20021;-61
2023/02/24 03:32:07;;;;;;;15.25;5.93;;;;;;;4.72;84.04;96606.38;6194307;23;20021;-60
2023/02/24 03:34:43;;;;;;;12.38;4.90;;;;;;;4.64;83.91;96606.47;6194219;23;20075;-61
2023/02/24 03:37:10;;;;;;;18.25;5.05;;;;;;;4.61;83.69;96609.09;6194071;23;20052;-60
2023/02/24 03:39:38;;;;;;;17.88;5.68;;;;;;;4.54;83.74;96600.53;6194588;23;20017;-61
2023/02/24 03:42:10;;;;;;;17.90;5.45;;;;;;;4.53;84.43;96591.94;6194594;23;20092;-60
2023/02/24 03:44:37;;;;;;;16.05;6.47;;;;;;;4.64;84.60;96598.72;6194174;23;20020;-61
2023/02/24 03:47:08;;;;;;;20.95;5.53;;;;;;;4.66;84.66;96604.72;6194134;23;20056;-61
2023/02/24 03:49:36;;;;;;;19.25;5.60;;;;;;;4.66;84.31;96599.53;6194326;23;20343;-60
2023/02/24 03:52:13;;;;;;;20.70;6.03;;;;;;;4.74;84.67;96596.84;6193980;23;20025;-60
2023/02/24 03:54:58;;;;;;;14.40;5.13;;;;;;;4.74;84.56;96596.84;6194027;23;20025;-61
2023/02/24 03:57:53;;;;;;;17.42;5.95;;;;;;;4.67;84.35;96593.50;6193869;23;20462;-61
2023/02/24 04:00:28;;;;;;;12.80;6.47;;;;;;;4.65;84.59;96588.31;6193803;23;20017;-60
2023/02/24 04:03:02;;;;;;;15.82;5.90;;;;;;;4.67;84.64;96593.50;6194118;23;20056;-60
2023/02/24 04:05:31;;;;;;;22.77;6.00;;;;;;;4.67;84.46;96583.97;6194164;23;20021;-60
2023/02/24 04:08:02;;;;;;;16.38;6.10;;;;;;;4.76;84.34;96587.31;6192666;23;20017;-60
2023/02/24 04:10:36;;;;;;;21.98;7.40;;;;;;;4.71;84.34;96587.38;6187276;23;20028;-60
2023/02/24 04:13:17;;;;;;;13.02;5.75;;;;;;;4.76;84.27;96584.72;6187552;23;20096;-61
2023/02/24 04:15:50;;;;;;;17.50;6.10;;;;;;;4.74;84.30;96582.16;6187121;23;20351;-61
2023/02/24 04:18:28;;;;;;;26.55;6.55;;;;;;;4.68;84.16;96583.09;6187185;23;20464;-61
2023/02/24 04:20:58;;;;;;;22.60;6.70;;;;;;;4.74;84.21;96582.16;6187196;23;20447;-60
2023/02/24 04:23:30;;;;;;;12.52;5.68;;;;;;;4.80;84.36;96573.44;6187518;23;20017;-60
2023/02/24 04:25:57;;;;;;;12.75;6.07;;;;;;;4.84;84.59;96574.25;6187389;23;20028;-60
2023/02/24 04:28:28;;;;;;;27.50;7.88;;;;;;;4.83;84.19;96568.19;6187748;23;20017;-61
2023/02/24 04:30:59;;;;;;;13.00;5.95;;;;;;;4.85;83.97;96571.59;6187315;23;20017;-60
2023/02/24 04:33:27;;;;;;;;;;;;;;;4.88;84.17;96568.97;6187407;23;20409;-62
2023/02/24 04:35:55;;;;;;;27.55;7.28;;;;;;;4.90;83.78;96566.34;6186814;23;19916;-62
2023/02/24 04:38:22;;;;;;;16.35;6.72;;;;;;;4.89;83.73;96562.94;6187251;23;20032;-63
2023/02/24 04:40:50;;;;;;;14.10;5.72;;;;;;;4.87;83.67;96564.69;6187211;23;20021;-61
2023/02/24 04:43:17;;;;;;;19.33;6.28;;;;;;;4.88;83.84;96562.94;6186856;23;20028;-61
2023/02/24 04:45:44;;;;;;;14.32;6.47;;;;;;;4.93;84.05;96566.31;6186867;23;20404;-60
2023/02/24 04:48:12;;;;;;;22.67;6.43;;;;;;;4.91;84.09;96558.56;6187211;23;20095;-60
2023/02/24 04:50:43;;;;;;;21.05;6.72;;;;;;;4.94;83.96;96555.09;6186926;23;20021;-61
2023/02/24 04:53:12;;;;;;;16.92;6.15;;;;;;;4.97;83.92;96547.22;6187414;23;20017;-61
2023/02/24 04:55:41;;;;;;;15.10;6.68;;;;;;;4.97;84.14;96549.81;6187313;23;20056;-58
2023/02/24 04:58:11;;;;;;;14.80;5.90;;;;;;;4.97;84.03;96549.81;6186761;23;20473;-60
2023/02/24 05:00:40;;;;;;;10.63;4.18;;;;;;;4.96;83.81;96545.53;6187400;23;20096;-62
2023/02/24 05:03:11;;;;;;;14.57;6.78;;;;;;;4.95;84.01;96554.19;6187245;23;20021;-62
2023/02/24 05:05:38;;;;;;;18.98;6.50;;;;;;;4.93;84.35;96551.63;6186905;23;20021;-63
2023/02/24 05:08:08;;;;;;;16.00;6.85;;;;;;;4.99;84.35;96545.50;6187202;23;20021;-62
2023/02/24 05:10:37;;;;;;;;;;;;;;;5.04;84.22;96559.25;6187106;23;20021;-62
2023/02/24 05:13:05;;;;;;;17.38;5.50;;;;;;;5.01;84.45;96554.13;6187194;23;20289;-63
2023/02/24 05:15:34;;;;;;;17.02;6.60;;;;;;;5.04;84.40;96563.56;6186389;23;20021;-63
2023/02/24 05:18:06;;;;;;;17.75;6.72;;;;;;;5.03;84.17;96559.28;6186885;23;20024;-63
2023/02/24 05:23:25;;;;;;;20.52;6.40;;;;;;;5.00;83.49;96556.72;6186703;23;20059;-63
2023/02/24 05:25:53;;;;;;;19.98;7.07;;;;;;;4.98;84.16;96550.69;6186800;23;20032;-63
2023/02/24 05:28:22;;;;;;;21.38;7.15;;;;;;;4.98;84.17;96550.69;6186697;23;20017;-63
2023/02/24 05:30:49;;;;;;;19.17;6.50;;;;;;;4.96;84.29;96550.72;6186418;23;20092;-63
2023/02/24 05:33:20;;;;;;;18.92;6.72;;;;;;;4.99;84.28;96550.66;6186789;23;20088;-60
2023/02/24 05:35:48;;;;;;;16.15;6.50;;;;;;;5.02;84.18;96557.53;6186474;23;20021;-62
2023/02/24 05:38:18;;;;;;;17.27;6.93;;;;;;;5.02;84.45;96553.22;6186346;23;20458;-63
2023/02/24 05:40:47;;;;;;;17.13;6.05;;;;;;;5.03;84.45;96554.91;6186332;23;20021;-63
2023/02/24 05:43:17;;;;;;;20.67;6.63;;;;;;;5.05;84.29;96562.69;6186334;23;20021;-63
2023/02/24 05:45:44;;;;;;;14.38;5.97;;;;;;;5.05;84.00;96565.28;6186806;23;20099;-62
2023/02/24 05:48:13;;;;;;;14.05;6.53;;;;;;;5.10;83.88;96555.69;6186736;23;20025;-62
2023/02/24 05:50:44;;;;;;;20.10;6.32;;;;;;;5.08;84.15;96559.22;6186249;23;20028;-63
2023/02/24 05:53:12;;;;;;;25.20;7.10;;;;;;;5.06;84.05;96559.22;6186280;23;20021;-63
2023/02/24 05:55:39;;;;;;;16.23;7.18;;;;;;;5.09;84.18;96571.28;6186229;23;20455;-62
2023/02/24 05:58:07;;;;;;;20.98;6.70;;;;;;;5.10;84.30;96565.22;6186379;23;20021;-62
2023/02/24 06:00:37;;;;;;;23.83;7.00;;;;;;;5.16;83.77;96559.94;6186382;23;20321;-63
2023/02/24 06:03:09;;;;;;;12.32;4.90;;;;;;;5.21;83.20;96568.47;6186586;23;20101;-63
2023/02/24 06:05:38;;;;;;;17.85;6.35;;;;;;;5.27;83.15;96567.53;6186605;23;20455;-63
2023/02/24 06:08:10;;;;;;;15.25;6.38;;;;;;;5.27;82.88;96572.72;6186643;23;20025;-62
2023/02/24 06:10:39;;;;;;;17.60;6.60;;;;;;;5.31;82.72;96564.88;6186364;23;20027;-63
2023/02/24 06:13:09;;;;;;;8.27;5.15;;;;;;;5.34;82.27;96557.91;6186414;23;20017;-63
2023/02/24 06:15:36;;;;;;;15.60;6.55;;;;;;;5.35;82.39;96559.59;6185825;23;20087;-63
2023/02/24 06:18:03;;;;;;;18.20;6.47;;;;;;;5.37;82.26;96556.13;6186228;23;20021;-62
2023/02/24 06:20:32;;;;;;;15.18;7.63;;;;;;;5.40;82.17;96556.06;6186001;23;20075;-62
2023/02/24 06:23:00;;;;;;;14.57;6.82;;;;;;;5.38;82.39;96556.97;6186423;23;20395;-63
2023/02/24 06:25:28;;;;;;;15.30;7.38;;;;;;;5.39;82.20;96556.94;6186043;23;20024;-62
2023/02/24 06:28:00;;;;;;;17.40;7.28;;;;;;;5.38;81.87;96555.22;6186156;23;20017;-63
2023/02/24 06:30:29;;;;;;;18.20;8.13;;;;;;;5.39;81.88;96554.34;6185865;23;20025;-63
2023/02/24 06:32:56;;;;;;;17.50;7.05;;;;;;;5.47;81.64;96554.22;6186228;23;20068;-63
2023/02/24 06:35:23;;;;;;;19.98;6.68;;;;;;;5.43;81.96;96561.22;6185757;23;20025;-62
2023/02/24 06:37:50;;;;;;;20.15;7.55;;;;;;;5.47;82.04;96554.22;6185655;23;20021;-63
2023/02/24 06:40:18;;;;;;;17.77;7.20;;;;;;;5.52;81.59;96543.75;6186242;23;20017;-63
2023/02/24 06:42:46;;;;;;;16.20;6.15;;;;;;;5.50;81.63;96548.13;6186295;23;20405;-63
2023/02/24 06:45:13;;;;;;;18.40;7.32;;;;;;;5.50;81.63;96551.56;6186290;23;20021;-63
2023/02/24 06:47:47;;;;;;;14.80;6.15;;;;;;;5.51;81.87;96548.09;6185699;23;20025;-63
2023/02/24 06:50:17;;;;;;;12.90;6.00;;;;;;;5.47;82.59;96548.16;6186146;23;20049;-63
2023/02/24 06:52:47;;;;;;;14.27;7.13;;;;;;;5.55;82.45;96549.78;6186112;23;20512;-62
2023/02/24 06:55:25;;;;;;;20.67;8.40;;;;;;;5.55;82.12;96547.16;6185729;23;20028;-63
2023/02/24 06:57:55;;;;;;;16.15;7.97;;;;;;;5.56;82.29;96541.09;6186232;23;20027;-61
2023/02/24 07:00:35;;;;;;;14.18;7.13;;;;;;;5.63;81.94;96538.38;6185830;23;20025;-61
2023/02/24 07:03:13;;;;;;;22.83;7.70;;;;;;;5.72;81.95;96530.41;6185751;23;20017;-62
2023/02/24 07:05:49;;;;;;;25.83;8.10;;;;;;;5.72;82.00;96526.97;6185517;23;20374;-62
2023/02/24 07:08:21;;;;;;;21.02;8.55;;;;;;;5.76;81.71;96528.63;6186247;23;20108;-63
2023/02/24 07:10:54;;;;;;;17.38;8.02;;;;;;;5.77;81.59;96519.94;6185922;23;20029;-62
2023/02/24 07:13:23;;;;;;;15.07;7.78;;;;;;;5.79;81.39;96523.38;6185757;23;20028;-63
2023/02/24 07:15:50;;;;;;;15.40;7.95;;;;;;;5.88;81.03;96522.34;6185251;23;20021;-63
2023/02/24 07:18:21;;;;;;;21.75;7.00;;;;;;;5.97;81.31;96522.16;6185668;23;20025;-63
2023/02/24 07:20:48;;;;;;;20.23;9.52;;;;;;;6.01;81.46;96520.34;6186069;23;20048;-63
2023/02/24 07:23:16;;;;;;;18.92;9.40;;;;;;;5.97;82.36;96513.50;6185781;23;20517;-62
2023/02/24 07:25:45;;;;;;;15.02;8.13;;;;;;;5.99;81.88;96510.00;6185500;23;20021;-63
2023/02/24 07:28:12;;;;;;;15.60;8.20;;;;;;;6.04;81.88;96509.94;6185501;23;20025;-63
2023/02/24 07:30:40;;;;;;;20.25;8.25;;;;;;;6.15;81.87;96509.72;6185959;23;20025;-62
2023/02/24 07:33:08;;;;;;;17.42;8.70;;;;;;;6.25;82.00;96515.56;6185640;23;20029;-62
2023/02/24 07:35:39;;;;;;;12.75;7.50;;;;;;;6.30;82.18;96514.56;6185535;23;20075;-63
2023/02/24 07:38:05;;;;;;;;;;;;;;;6.45;81.28;96515.16;6186019;23;20021;-63
2023/02/24 07:40:35;;;;;;;17.52;8.00;;;;;;;6.35;81.73;96504.09;6185757;23;20301;-62
2023/02/24 07:43:02;;;;;;;13.52;7.43;;;;;;;6.36;81.02;96503.22;6186046;23;20404;-63
2023/02/24 07:45:29;;;;;;;16.92;7.70;;;;;;;6.33;80.94;96503.28;6187452;23;20024;-63
2023/02/24 07:47:56;;;;;;;13.25;7.30;;;;;;;6.56;80.56;96505.38;6187586;23;20032;-63
2023/02/24 07:50:24;;;;;;;16.80;5.20;;;;;;;6.67;75.95;96512.06;6187639;23;20017;-62
2023/02/24 07:52:52;;;;;;;14.65;5.82;;;;;;;6.69;75.76;96500.72;6187771;23;20068;-63
2023/02/24 07:55:19;;;;;;;12.40;5.00;;;;;;;6.78;75.10;96507.50;6187291;23;20104;-63
2023/02/24 07:57:47;;;;;;;12.68;5.13;;;;;;;6.85;72.21;96505.59;6187414;23;20048;-63
2023/02/24 08:00:19;;;;;;;13.65;5.55;;;;;;;6.92;72.52;96506.28;6187266;23;20455;-63
2023/02/24 08:02:48;;;;;;;13.25;5.13;;;;;;;6.93;71.58;96503.63;6187072;23;20096;-62
2023/02/24 08:05:16;;;;;;;10.45;4.97;;;;;;;6.88;70.51;96502.03;6187438;23;20024;-63
2023/02/24 08:07:48;;;;;;;15.77;6.03;;;;;;;6.87;72.86;96497.75;6187360;23;20021;-63
2023/02/24 08:10:26;;;;;;;14.05;5.97;;;;;;;6.88;72.11;96496.84;6187170;23;20044;-63
2023/02/24 08:12:55;;;;;;;12.75;4.80;;;;;;;6.92;71.76;96494.13;6187424;23;20091;-62
2023/02/24 08:15:32;;;;;;;14.88;5.43;;;;;;;6.88;73.05;96499.44;6186884;23;20021;-62
2023/02/24 08:18:00;;;;;;;10.85;5.72;;;;;;;6.98;71.98;96500.94;6187185;23;20036;-62
2023/02/24 08:20:34;;;;;;;14.35;4.75;;;;;;;7.10;72.53;96499.78;6187114;23;20028;-62
2023/02/24 08:23:05;;;;;;;10.27;5.20;;;;;;;7.25;71.22;96500.31;6187261;23;20324;-63
2023/02/24 08:25:36;;;;;;;12.90;4.57;;;;;;;7.49;72.19;96493.59;6186885;23;20017;-62
2023/02/24 08:28:10;;;;;;;14.93;4.70;;;;;;;7.88;70.02;96489.09;6187489;23;20017;-63
2023/02/24 08:30:43;;;;;;;11.77;4.30;;;;;;;8.29;68.82;96491.41;6186972;23;20051;-63
2023/02/24 08:33:14;;;;;;;11.90;4.75;;;;;;;8.67;66.83;96494.63;6187368;23;20044;-62
2023/02/24 08:35:43;;;;;;;7.35;4.38;;;;;;;9.01;66.42;96492.72;6187314;23;20117;-63
2023/02/24 08:38:13;;;;;;;8.85;4.78;;;;;;;9.31;63.97;96494.34;6186834;23;20394;-63
2023/02/24 08:40:50;;;;;;;10.10;4.15;;;;;;;9.32;62.97;96486.47;6186843;23;20099;-63
2023/02/24 08:43:29;;;;;;;12.48;4.43;;;;;;;9.26;63.50;96478.00;6186808;23;20057;-63
2023/02/24 08:46:02;;;;;;;13.07;5.45;;;;;;;9.27;64.65;96471.88;6187099;23;20021;-63
2023/02/24 08:48:36;;;;;;;12.13;4.57;;;;;;;9.39;63.77;96479.28;6186832;23;20059;-63
2023/02/24 08:51:08;;;;;;;15.82;5.95;;;;;;;9.42;62.48;96475.72;6186730;23;20017;-63
2023/02/24 08:53:39;;;;;;;14.55;5.68;;;;;;;9.69;64.51;96467.84;6187081;23;20017;-63
2023/02/24 08:56:10;;;;;;;11.98;4.75;;;;;;;10.11;62.71;96479.38;6187039;23;20021;-63
2023/02/24 08:58:45;;;;;;;12.70;4.95;;;;;;;10.34;61.00;96481.13;6186897;23;20021;-63
2023/02/24 09:01:18;;;;;;;13.77;5.53;;;;;;;10.61;60.85;96482.78;6186575;23;20075;-63
2023/02/24 09:03:46;;;;;;;7.88;4.90;;;;;;;10.79;59.55;96475.97;6186658;23;20099;-63
2023/02/24 09:06:16;;;;;;;17.60;6.70;;;;;;;10.79;60.25;96473.34;6186612;23;20056;-63
2023/02/24 09:08:45;;;;;;;10.77;5.45;;;;;;;10.57;61.18;96475.97;6186885;23;20076;-63
2023/02/24 09:11:15;;;;;;;18.88;5.93;;;;;;;10.52;62.49;96481.38;6186491;23;20021;-62
2023/02/24 09:13:56;;;;;;;12.32;5.45;;;;;;;10.60;60.89;96481.06;6186553;23;20523;-63
2023/02/24 09:16:25;;;;;;;13.52;5.82;;;;;;;10.56;61.30;96480.34;6186343;23;20463;-63
2023/02/24 09:24:27;;;;;;;11.60;6.10;;;;;;;10.71;60.33;96467.56;6186226;23;20053;-62
2023/02/24 09:26:57;;;;;;;11.05;6.13;;;;;;;10.74;60.71;96465.69;6186875;23;20017;-63
2023/02/24 09:29:34;;;;;;;30.85;13.93;;;;;;;10.91;61.02;96465.91;6186495;23;20021;-61
2023/02/24 09:32:04;;;;;;;15.57;7.32;;;;;;;11.21;60.49;96461.19;6186767;23;20048;-61
2023/02/24 09:34:32;;;;;;;17.45;7.03;;;;;;;11.37;59.04;96457.91;6186321;23;20029;-61
2023/02/24 09:37:02;;;;;;;10.23;6.88;;;;;;;11.37;58.45;96461.38;6186317;23;20056;-61
2023/02/24 09:39:57;;;;;;;17.80;8.90;;;;;;;11.23;58.86;96458.50;6186630;23;20336;-61
2023/02/24 09:42:31;;;;;;;19.85;9.05;;;;;;;11.05;59.45;96453.09;6185946;23;20044;-61
2023/02/24 09:45:10;;;;;;;16.92;8.55;;;;;;;11.07;60.45;96450.41;6186155;23;20099;-61
2023/02/24 09:47:55;;;;;;;11.13;7.10;;;;;;;11.12;58.78;96443.25;6186542;23;20091;-60
2023/02/24 09:50:29;;;;;;;13.73;8.00;;;;;;;10.88;60.11;96438.09;6186434;23;20025;-61
2023/02/24 09:53:12;;;;;;;15.60;7.28;;;;;;;10.89;60.29;96431.13;6186137;23;20017;-61
2023/02/24 09:55:58;;;;;;;16.30;7.50;;;;;;;10.97;60.86;96432.50;6186404;23;20024;-62
2023/02/24 09:58:37;;;;;;;12.73;7.05;;;;;;;11.10;60.00;96416.25;6186288;23;20021;-61
2023/02/24 10:01:29;;;;;;;13.48;7.88;;;;;;;11.27;59.78;96414.69;6186492;23;20375;-61
2023/02/24 10:04:04;;;;;;;14.57;8.05;;;;;;;11.38;58.84;96405.47;6185951;23;20395;-61
2023/02/24 10:06:37;;;;;;;16.60;8.50;;;;;;;11.56;58.84;96407.34;6186036;23;20025;-61
2023/02/24 10:09:12;;;;;;;16.90;7.60;;;;;;;11.69;57.29;96394.56;6186445;23;20056;-61
2023/02/24 10:11:52;;;;;;;18.25;8.30;;;;;;;11.74;57.31;96393.44;6186020;23;20030;-61
2023/02/24 10:14:25;;;;;;;17.83;8.25;;;;;;;11.72;57.24;96381.31;6186450;23;20386;-61
2023/02/24 10:19:35;;;;;;;15.30;8.25;;;;;;;11.80;56.25;96381.81;6185637;23;20021;-61
2023/02/24 10:22:08;;;;;;;16.80;8.55;;;;;;;11.84;56.28;96377.28;6185991;23;20076;-61
2023/02/24 10:24:46;;;;;;;18.60;8.20;;;;;;;11.90;57.13;96377.00;6185923;23;20339;-61
2023/02/24 10:27:22;;;;;;;16.48;8.90;;;;;;;11.64;57.22;96368.56;6185995;23;20028;-61
2023/02/24 10:30:09;;;;;;;15.07;8.32;;;;;;;11.36;56.80;96365.41;6185938;23;20375;-61
2023/02/24 10:32:46;;;;;;;17.63;7.72;;;;;;;11.23;57.80;96362.47;6185955;23;20092;-62
2023/02/24 10:35:16;;;;;;;15.73;8.27;;;;;;;11.25;58.25;96362.41;6186313;23;20024;-61
2023/02/24 10:37:43;;;;;;;19.83;8.23;;;;;;;11.40;58.59;96354.78;6185832;23;20466;-62
2023/02/24 10:40:16;;;;;;;16.75;8.10;;;;;;;11.61;59.14;96345.13;6186187;23;20447;-63
2023/02/24 10:42:46;;;;;;;13.32;6.90;;;;;;;11.65;57.49;96348.47;6185821;23;20490;-61
2023/02/24 10:45:17;;;;;;;13.32;7.75;;;;;;;11.85;56.72;96342.28;6186293;23;20047;-61
2023/02/24 10:47:55;;;;;;;16.63;7.45;;;;;;;11.87;56.36;96327.34;6186094;23;20047;-62
2023/02/24 10:50:26;;;;;;;16.85;7.18;;;;;;;12.00;56.40;96330.25;6185848;23;20100;-61
2023/02/24 10:53:24;;;;;;;12.68;7.65;;;;;;;12.13;55.95;96323.53;6186002;23;20470;-62
2023/02/24 10:56:13;;;;;;;21.67;8.35;;;;;;;12.29;55.91;96314.06;6186044;23;20100;-61
2023/02/24 10:58:48;;;;;;;10.73;7.15;;;;;;;12.57;55.93;96312.72;6185627;23;20028;-61
2023/02/24 11:01:20;;;;;;;15.75;7.93;;;;;;;12.74;54.41;96298.75;6185814;23;20418;-61
2023/02/24 11:04:00;;;;;;;15.40;8.35;;;;;;;12.88;54.05;96301.53;6186079;23;20082;-62
2023/02/24 11:06:51;;;;;;;11.75;7.65;;;;;;;12.95;53.69;96296.81;6185695;23;20095;-61
2023/02/24 11:09:34;;;;;;;12.27;6.80;;;;;;;13.07;54.04;96297.97;6185742;23;20025;-60
2023/02/24 11:17:50;;;;;;;15.60;7.95;;;;;;;13.21;54.32;96291.09;6185969;23;20080;-61
2023/02/24 11:20:28;;;;;;;13.63;7.63;;;;;;;13.40;52.96;96286.59;6187312;23;20021;-60
2023/02/24 11:22:56;;;;;;;17.52;8.07;;;;;;;13.00;53.63;96281.66;6187638;23;20021;-61
2023/02/24 11:25:26;;;;;;;11.00;7.68;;;;;;;12.93;53.43;96280.28;6187498;23;20343;-61
2023/02/24 11:27:56;;;;;;;16.50;8.98;;;;;;;12.93;54.21;96276.81;6188085;23;20025;-61
2023/02/24 11:30:34;;;;;;;10.95;5.97;;;;;;;13.14;53.60;96275.69;6187617;23;20025;-61
2023/02/24 11:33:17;;;;;;;16.00;7.55;;;;;;;13.19;53.34;96259.69;6188012;23;20021;-61
2023/02/24 11:35:55;;;;;;;14.68;8.15;;;;;;;13.51;52.26;96259.78;6187669;23;20021;-61
2023/02/24 11:38:34;;;;;;;15.25;8.50;;;;;;;13.56;51.42;96258.66;6187568;23;20332;-62
2023/02/24 11:41:08;;;;;;;16.17;8.15;;;;;;;13.52;51.48;96248.31;6187890;23;20355;-62
2023/02/24 11:43:39;;;;;;;18.50;8.00;;;;;;;13.25;51.76;96248.84;6187831;23;20045;-61
2023/02/24 11:46:11;;;;;;;13.55;7.80;;;;;;;13.17;52.11;96250.19;6187321;23;20477;-62
2023/02/24 11:48:46;;;;;;;20.02;8.80;;;;;;;12.97;52.12;96242.44;6187579;23;20064;-61
2023/02/24 11:51:19;;;;;;;20.27;7.97;;;;;;;13.00;52.70;96241.41;6187401;23;20455;-62
2023/02/24 11:53:49;;;;;;;18.58;9.20;;;;;;;13.04;52.05;96244.75;6187567;23;20067;-61
2023/02/24 11:56:19;;;;;;;;;;;;;;;13.14;52.84;96238.94;6188055;23;20529;-61
2023/02/24 11:58:52;;;;;;;16.95;9.00;;;;;;;13.15;52.42;96234.50;6187230;23;19916;-62
2023/02/24 12:01:25;;;;;;;17.95;8.68;;;;;;;13.12;52.27;96235.53;6187308;23;20387;-61
2023/02/24 12:04:01;;;;;;;15.35;8.82;;;;;;;13.24;51.90;96230.53;6187383;23;20451;-61
2023/02/24 12:06:34;;;;;;;15.55;9.65;;;;;;;13.31;52.25;96226.69;6187258;23;20096;-62
2023/02/24 12:09:09;;;;;;;19.27;9.38;;;;;;;13.47;50.78;96216.19;6187432;23;20021;-61
2023/02/24 12:11:43;;;;;;;16.77;8.63;;;;;;;13.58;51.39;96205.09;6187508;23;20028;-61
2023/02/24 12:14:22;;;;;;;16.60;8.40;;;;;;;13.70;50.68;96208.81;6187633;23;20026;-62
2023/02/24 12:17:00;;;;;;;15.65;8.18;;;;;;;13.80;50.14;96201.28;6187103;23;20088;-62
2023/02/24 12:19:36;;;;;;;12.32;8.43;;;;;;;13.80;50.35;96203.91;6187457;23;20025;-62
2023/02/24 12:22:11;;;;;;;12.85;8.55;;;;;;;13.73;50.36;96195.50;6187097;23;20023;-61
2023/02/24 12:24:40;;;;;;;16.83;9.52;;;;;;;13.73;51.14;96195.50;6187732;23;20029;-62
2023/02/24 12:27:18;;;;;;;15.15;8.55;;;;;;;13.76;51.01;96190.06;6187094;23;20025;-61
2023/02/24 12:30:05;;;;;;;14.48;8.10;;;;;;;13.86;50.61;96187.78;6187474;23;20396;-62
2023/02/24 12:32:50;;;;;;;14.05;9.20;;;;;;;13.99;49.71;96182.66;6187078;23;20023;-61
2023/02/24 12:35:29;;;;;;;15.15;8.63;;;;;;;14.03;50.29;96173.66;6187532;23;20316;-62
2023/02/24 12:38:08;;;;;;;16.30;8.60;;;;;;;14.06;50.33;96177.88;6186850;23;20020;-61
2023/02/24 12:40:44;;;;;;;14.10;8.00;;;;;;;14.32;49.52;96180.78;6186851;23;20096;-62